Time;durP1;ratioP1;P1;durP2;ratioP2;P2;SDS_P1;SDS_P2;PMS_P1;PMS_P2;Temp;Humidity;BMP_temperature;BMP_pressure;BME280_temperature;BME280_humidity;BME280_pressure;Samples;Min_cycle;Max_cycle;Signal;HPM_P1;HPM_P2
2022/07/22 00:01:00;;;;;;;0.00;0.00;;;21.20;99.90;;;;;;5039109;28;20225;-74
2022/07/22 00:03:27;;;;;;;0.00;0.00;;;21.20;99.90;;;;;;5030680;28;20207;-73
2022/07/22 00:05:54;;;;;;;0.00;0.00;;;21.10;99.90;;;;;;5029483;28;20251;-74
2022/07/22 00:08:22;;;;;;;0.00;0.00;;;21.10;99.90;;;;;;5038216;28;20272;-74
2022/07/22 00:10:49;;;;;;;0.00;0.00;;;21.10;99.90;;;;;;5035898;28;20203;-74
2022/07/22 00:13:16;;;;;;;0.00;0.00;;;21.10;99.90;;;;;;5033345;28;20210;-74
2022/07/22 00:15:43;;;;;;;0.00;0.00;;;21.10;99.90;;;;;;5037330;28;20222;-74
2022/07/22 00:18:10;;;;;;;0.00;0.00;;;21.10;99.90;;;;;;5028626;28;20656;-74
2022/07/22 00:20:37;;;;;;;0.00;0.00;;;21.10;99.90;;;;;;5049909;28;20197;-74
2022/07/22 00:23:04;;;;;;;0.00;0.00;;;21.10;99.90;;;;;;5058985;28;20723;-74
2022/07/22 00:25:32;;;;;;;0.00;0.00;;;21.10;99.90;;;;;;5030991;28;20223;-75
2022/07/22 00:27:59;;;;;;;0.00;0.00;;;21.10;99.90;;;;;;5032314;28;20294;-74
2022/07/22 00:30:28;;;;;;;0.00;0.00;;;21.10;99.90;;;;;;5028207;28;20196;-73
2022/07/22 00:32:54;;;;;;;0.00;0.00;;;21.10;99.90;;;;;;5027742;28;20302;-74
2022/07/22 00:35:22;;;;;;;0.00;0.00;;;21.10;99.90;;;;;;5053119;28;20309;-74
2022/07/22 00:37:49;;;;;;;0.00;0.00;;;21.10;99.90;;;;;;5038839;28;20241;-74
2022/07/22 00:40:16;;;;;;;0.00;0.00;;;21.10;99.90;;;;;;5049235;28;20219;-74
2022/07/22 00:42:44;;;;;;;0.00;0.00;;;21.10;99.90;;;;;;5041510;28;20206;-73
2022/07/22 00:45:11;;;;;;;0.00;0.00;;;21.00;99.90;;;;;;5038198;28;20219;-74
2022/07/22 00:47:38;;;;;;;0.00;0.00;;;21.00;99.90;;;;;;5059664;28;20202;-74
2022/07/22 00:50:07;;;;;;;0.00;0.00;;;21.00;99.90;;;;;;5054902;28;20191;-74
2022/07/22 00:52:34;;;;;;;0.00;0.00;;;20.90;99.90;;;;;;5062031;28;20195;-74
2022/07/22 00:55:04;;;;;;;0.00;0.00;;;20.90;99.90;;;;;;5022312;28;20227;-73
2022/07/22 00:57:30;;;;;;;0.00;0.00;;;20.90;99.90;;;;;;5034347;28;20199;-74
2022/07/22 00:59:59;;;;;;;0.00;0.00;;;20.90;99.90;;;;;;5052611;28;20210;-73
2022/07/22 01:02:26;;;;;;;0.00;0.00;;;20.90;99.90;;;;;;5028356;28;20218;-74
2022/07/22 01:04:53;;;;;;;0.00;0.00;;;20.90;99.90;;;;;;5036065;28;20226;-74
2022/07/22 01:07:20;;;;;;;0.00;0.00;;;20.90;99.90;;;;;;5040676;28;20199;-74
2022/07/22 01:09:47;;;;;;;0.00;0.00;;;20.90;99.90;;;;;;5061891;28;20303;-74
2022/07/22 01:12:15;;;;;;;0.00;0.00;;;20.90;99.90;;;;;;5028642;28;20201;-73
2022/07/22 01:14:42;;;;;;;0.00;0.00;;;20.90;99.90;;;;;;5037522;28;20233;-74
2022/07/22 01:17:11;;;;;;;0.00;0.00;;;20.90;99.90;;;;;;5027939;28;20211;-73
2022/07/22 01:19:39;;;;;;;0.00;0.00;;;20.90;99.90;;;;;;5038691;28;20225;-73
2022/07/22 01:22:08;;;;;;;0.00;0.00;;;20.90;99.90;;;;;;5039901;28;20230;-73
2022/07/22 01:24:35;;;;;;;0.00;0.00;;;20.90;99.90;;;;;;5030363;28;20225;-74
2022/07/22 01:27:02;;;;;;;0.00;0.00;;;20.90;99.90;;;;;;5043965;28;20289;-73
2022/07/22 01:29:30;;;;;;;0.00;0.00;;;20.90;99.90;;;;;;5033877;28;20234;-74
2022/07/22 01:31:57;;;;;;;0.00;0.00;;;20.80;99.90;;;;;;5039823;28;20191;-74
2022/07/22 01:34:24;;;;;;;0.00;0.00;;;20.80;99.90;;;;;;5038943;28;20215;-73
2022/07/22 01:36:53;;;;;;;0.00;0.00;;;20.80;99.90;;;;;;5044801;28;20272;-73
2022/07/22 01:39:21;;;;;;;0.00;0.00;;;20.80;99.90;;;;;;5035404;28;20282;-74
2022/07/22 01:41:48;;;;;;;0.00;0.00;;;20.80;99.90;;;;;;5037966;28;20203;-74
2022/07/22 01:44:16;;;;;;;0.00;0.00;;;20.80;99.90;;;;;;5049808;28;20209;-73
2022/07/22 01:46:43;;;;;;;0.00;0.00;;;20.80;99.90;;;;;;5036828;28;20202;-73
2022/07/22 01:49:10;;;;;;;0.00;0.00;;;20.70;99.90;;;;;;5040089;28;20256;-72
2022/07/22 01:51:39;;;;;;;0.00;0.00;;;20.70;99.90;;;;;;5046698;28;20195;-72
2022/07/22 01:54:06;;;;;;;0.10;0.00;;;20.70;99.90;;;;;;5020757;28;20654;-72
2022/07/22 01:56:34;;;;;;;0.00;0.00;;;20.70;99.90;;;;;;5035713;28;20204;-72
2022/07/22 01:59:01;;;;;;;0.00;0.00;;;20.70;99.90;;;;;;5041056;28;20199;-73
2022/07/22 02:01:30;;;;;;;0.00;0.00;;;20.60;99.90;;;;;;5035054;28;20191;-72
2022/07/22 02:03:57;;;;;;;0.00;0.00;;;20.60;99.90;;;;;;5063743;28;20253;-72
2022/07/22 02:06:24;;;;;;;0.00;0.00;;;20.60;99.90;;;;;;5032827;28;20246;-72
2022/07/22 02:08:53;;;;;;;0.00;0.00;;;20.60;99.90;;;;;;5042725;28;20261;-73
2022/07/22 02:11:29;;;;;;;0.00;0.00;;;20.60;99.90;;;;;;5044205;28;20269;-73
2022/07/22 02:13:59;;;;;;;0.00;0.00;;;20.60;99.90;;;;;;5039554;28;20699;-72
2022/07/22 02:16:27;;;;;;;0.00;0.00;;;20.60;99.90;;;;;;5030586;28;20227;-73
2022/07/22 02:18:54;;;;;;;0.00;0.00;;;20.60;99.90;;;;;;5038116;28;20202;-72
2022/07/22 02:21:21;;;;;;;0.00;0.00;;;20.60;99.90;;;;;;5038614;28;20203;-73
2022/07/22 02:23:49;;;;;;;0.00;0.00;;;20.50;99.90;;;;;;5037536;28;20292;-72
2022/07/22 02:26:16;;;;;;;0.00;0.00;;;20.50;99.90;;;;;;5035074;28;20223;-73
2022/07/22 02:28:45;;;;;;;0.00;0.00;;;20.40;99.90;;;;;;5032755;28;20230;-73
2022/07/22 02:31:14;;;;;;;0.00;0.00;;;20.40;99.90;;;;;;5029634;28;20221;-73
2022/07/22 02:33:41;;;;;;;0.00;0.00;;;20.40;99.90;;;;;;5036221;28;20210;-72
2022/07/22 02:36:09;;;;;;;0.00;0.00;;;20.40;99.90;;;;;;5032904;28;20255;-72
2022/07/22 02:38:36;;;;;;;0.00;0.00;;;20.40;99.90;;;;;;5033770;28;20193;-73
2022/07/22 02:41:04;;;;;;;0.00;0.00;;;20.40;99.90;;;;;;5030514;28;20735;-73
2022/07/22 02:43:33;;;;;;;0.00;0.00;;;20.40;99.90;;;;;;5038351;28;20195;-72
2022/07/22 02:46:00;;;;;;;0.00;0.00;;;20.40;99.90;;;;;;5030167;28;20227;-73
2022/07/22 02:48:28;;;;;;;0.00;0.00;;;20.40;99.90;;;;;;5035798;28;20269;-73
2022/07/22 02:50:55;;;;;;;0.00;0.00;;;20.40;99.90;;;;;;5029402;28;20199;-74
2022/07/22 02:53:25;;;;;;;0.00;0.00;;;20.40;99.90;;;;;;5028583;28;20262;-72
2022/07/22 02:55:53;;;;;;;0.00;0.00;;;20.40;99.90;;;;;;5029366;28;20221;-72
2022/07/22 02:58:19;;;;;;;0.00;0.00;;;20.40;99.90;;;;;;5033731;28;20210;-72
2022/07/22 03:00:47;;;;;;;0.00;0.00;;;20.30;99.90;;;;;;5038013;28;20219;-72
2022/07/22 03:03:14;;;;;;;0.00;0.00;;;20.30;99.90;;;;;;5028368;28;20290;-72
2022/07/22 03:05:43;;;;;;;0.00;0.00;;;20.20;99.90;;;;;;5032646;28;20230;-72
2022/07/22 03:08:25;;;;;;;0.00;0.00;;;20.20;99.90;;;;;;5036752;28;20273;-73
2022/07/22 03:10:53;;;;;;;0.00;0.00;;;20.10;99.90;;;;;;5033932;28;20203;-72
2022/07/22 03:13:20;;;;;;;0.00;0.00;;;20.10;99.90;;;;;;5033235;28;20222;-73
2022/07/22 03:15:47;;;;;;;0.00;0.00;;;20.10;99.90;;;;;;5032315;28;20227;-73
2022/07/22 03:18:14;;;;;;;0.00;0.00;;;20.10;99.90;;;;;;5037905;28;20216;-72
2022/07/22 03:20:43;;;;;;;0.00;0.00;;;20.10;99.90;;;;;;5035688;28;20207;-72
2022/07/22 03:23:10;;;;;;;0.00;0.00;;;20.10;99.90;;;;;;5052103;28;20207;-72
2022/07/22 03:25:38;;;;;;;0.00;0.00;;;20.10;99.90;;;;;;5024618;28;20235;-73
2022/07/22 03:28:05;;;;;;;0.00;0.00;;;20.20;99.90;;;;;;5037275;28;20238;-72
2022/07/22 03:30:33;;;;;;;0.00;0.00;;;20.20;99.90;;;;;;5036078;28;20222;-74
2022/07/22 03:33:00;;;;;;;0.00;0.00;;;20.20;99.90;;;;;;5025335;28;20253;-72
2022/07/22 03:35:31;;;;;;;0.00;0.00;;;20.20;99.90;;;;;;5029905;28;20223;-73
2022/07/22 03:37:59;;;;;;;0.00;0.00;;;20.20;99.90;;;;;;5037418;28;20198;-73
2022/07/22 03:40:28;;;;;;;0.00;0.00;;;20.20;99.90;;;;;;5034384;28;20193;-73
2022/07/22 03:42:57;;;;;;;0.00;0.00;;;20.20;99.90;;;;;;5031790;28;20290;-73
2022/07/22 03:45:24;;;;;;;0.00;0.00;;;20.20;99.90;;;;;;5025601;28;20243;-72
2022/07/22 03:47:54;;;;;;;0.00;0.00;;;20.20;99.90;;;;;;5026890;28;20290;-72
2022/07/22 03:50:22;;;;;;;0.00;0.00;;;20.20;99.90;;;;;;5054513;28;20230;-72
2022/07/22 03:52:50;;;;;;;0.00;0.00;;;20.20;99.90;;;;;;5038174;28;20289;-73
2022/07/22 03:55:18;;;;;;;0.00;0.00;;;20.30;99.90;;;;;;5025570;28;20296;-74
2022/07/22 03:57:46;;;;;;;0.00;0.00;;;20.30;99.90;;;;;;5031847;28;20207;-73
2022/07/22 04:00:21;;;;;;;0.00;0.00;;;20.40;99.90;;;;;;5036535;28;20241;-72
2022/07/22 04:02:48;;;;;;;0.00;0.00;;;20.40;99.90;;;;;;5042059;28;20256;-72
2022/07/22 04:05:20;;;;;;;0.00;0.00;;;20.40;99.90;;;;;;5038724;28;20237;-72
2022/07/22 04:07:48;;;;;;;0.00;0.00;;;20.50;99.90;;;;;;5031468;28;20231;-72
2022/07/22 04:10:15;;;;;;;0.00;0.00;;;20.60;99.90;;;;;;5043300;28;20227;-73
2022/07/22 04:12:46;;;;;;;0.00;0.00;;;20.70;99.90;;;;;;5039079;28;20215;-72
2022/07/22 04:15:23;;;;;;;0.00;0.00;;;20.80;99.90;;;;;;5033609;28;20333;-73
2022/07/22 04:17:50;;;;;;;0.00;0.00;;;20.80;99.90;;;;;;5033488;28;20199;-72
2022/07/22 04:20:17;;;;;;;0.00;0.00;;;20.90;99.90;;;;;;5044631;28;20211;-72
2022/07/22 04:23:03;;;;;;;0.00;0.00;;;21.00;99.90;;;;;;5054662;28;20198;-72
2022/07/22 04:25:31;;;;;;;0.00;0.00;;;21.00;99.90;;;;;;5035394;28;20223;-73
2022/07/22 04:27:59;;;;;;;0.00;0.00;;;21.00;99.90;;;;;;5053160;28;20195;-73
2022/07/22 04:30:26;;;;;;;0.00;0.00;;;21.00;99.90;;;;;;5051828;28;20248;-72
2022/07/22 04:32:53;;;;;;;0.00;0.00;;;20.90;99.90;;;;;;5035185;28;20207;-72
2022/07/22 04:35:21;;;;;;;0.00;0.00;;;20.90;99.90;;;;;;5034677;28;20297;-73
2022/07/22 04:38:02;;;;;;;0.00;0.00;;;20.80;99.90;;;;;;5032729;28;20260;-73
2022/07/22 04:40:30;;;;;;;0.00;0.00;;;20.80;99.90;;;;;;5036479;28;20192;-73
2022/07/22 04:42:58;;;;;;;0.00;0.00;;;20.80;99.90;;;;;;5057237;28;20191;-72
2022/07/22 04:45:25;;;;;;;0.00;0.00;;;20.90;99.90;;;;;;5037754;28;20229;-73
2022/07/22 04:47:52;;;;;;;0.00;0.00;;;21.00;99.90;;;;;;5059807;28;20209;-72
2022/07/22 04:50:19;;;;;;;0.00;0.00;;;21.10;99.90;;;;;;5033323;28;20493;-73
2022/07/22 04:52:53;;;;;;;0.00;0.00;;;21.20;99.90;;;;;;5041728;28;20198;-72
2022/07/22 04:55:20;;;;;;;0.00;0.00;;;21.20;99.90;;;;;;5044774;28;20457;-73
2022/07/22 04:57:47;;;;;;;0.00;0.00;;;21.20;99.90;;;;;;5035554;28;20209;-72
2022/07/22 05:00:17;;;;;;;0.00;0.00;;;21.10;99.90;;;;;;5036746;28;20191;-73
2022/07/22 05:02:51;;;;;;;0.00;0.00;;;21.30;99.90;;;;;;5034870;28;20210;-73
2022/07/22 05:05:20;;;;;;;0.00;0.00;;;21.50;99.90;;;;;;5039416;28;20222;-73
2022/07/22 05:07:47;;;;;;;0.00;0.00;;;21.60;99.90;;;;;;5039513;28;20234;-74
2022/07/22 05:10:14;;;;;;;0.00;0.00;;;21.70;99.90;;;;;;5036441;28;20230;-73
2022/07/22 05:12:41;;;;;;;0.00;0.00;;;21.70;99.90;;;;;;5039250;28;20199;-73
2022/07/22 05:15:09;;;;;;;0.00;0.00;;;21.70;99.90;;;;;;5040609;28;20227;-75
2022/07/22 05:17:37;;;;;;;0.00;0.00;;;21.80;99.90;;;;;;5050371;28;20302;-74
2022/07/22 05:20:13;;;;;;;0.00;0.00;;;22.10;99.90;;;;;;5023200;28;20590;-75
2022/07/22 05:22:40;;;;;;;0.00;0.00;;;22.20;99.90;;;;;;5040273;28;20203;-73
2022/07/22 05:25:13;;;;;;;0.00;0.00;;;22.30;99.90;;;;;;5022161;28;20305;-76
2022/07/22 05:27:50;;;;;;;0.00;0.00;;;22.20;99.90;;;;;;5027953;28;20203;-75
2022/07/22 05:30:19;;;;;;;0.00;0.00;;;22.10;99.90;;;;;;5026988;28;20215;-77
2022/07/22 05:32:48;;;;;;;0.00;0.00;;;22.00;99.90;;;;;;5033654;28;20195;-74
2022/07/22 05:35:18;;;;;;;0.00;0.00;;;21.90;99.90;;;;;;5018487;28;20220;-75
2022/07/22 05:37:45;;;;;;;0.00;0.00;;;21.80;99.90;;;;;;5025358;28;20239;-75
2022/07/22 05:40:13;;;;;;;0.00;0.00;;;21.80;99.90;;;;;;5029519;28;20187;-76
2022/07/22 05:42:40;;;;;;;0.00;0.00;;;21.70;99.90;;;;;;5032170;28;20245;-75
2022/07/22 05:45:08;;;;;;;0.00;0.00;;;21.70;99.90;;;;;;5021298;28;20604;-74
2022/07/22 05:47:35;;;;;;;0.00;0.00;;;21.70;99.90;;;;;;5027816;28;20211;-73
2022/07/22 05:50:03;;;;;;;0.00;0.00;;;21.70;99.90;;;;;;5025047;28;20701;-73
2022/07/22 05:52:32;;;;;;;0.00;0.00;;;21.60;99.90;;;;;;5035760;28;20203;-73
2022/07/22 05:55:00;;;;;;;0.00;0.00;;;21.60;99.90;;;;;;5038769;28;20223;-73
2022/07/22 05:57:27;;;;;;;0.00;0.00;;;21.50;99.90;;;;;;5038021;28;20744;-73
2022/07/22 05:59:55;;;;;;;0.00;0.00;;;21.50;99.90;;;;;;5019724;28;20196;-72
2022/07/22 06:02:22;;;;;;;0.00;0.00;;;21.40;99.90;;;;;;5034949;28;20203;-72
2022/07/22 06:04:50;;;;;;;0.00;0.00;;;21.40;99.90;;;;;;5038979;28;20219;-72
2022/07/22 06:07:20;;;;;;;0.00;0.00;;;21.30;99.90;;;;;;5027267;28;20298;-72
2022/07/22 06:09:51;;;;;;;0.00;0.00;;;21.30;99.90;;;;;;5025581;28;20214;-72
2022/07/22 06:12:18;;;;;;;0.00;0.00;;;21.30;99.90;;;;;;5027864;28;20199;-72
2022/07/22 06:14:46;;;;;;;0.00;0.00;;;21.20;99.90;;;;;;5027573;28;20227;-72
2022/07/22 06:17:13;;;;;;;0.00;0.00;;;21.20;99.90;;;;;;5022700;28;20268;-71
2022/07/22 06:19:40;;;;;;;0.00;0.00;;;21.20;99.90;;;;;;5034596;28;20204;-74
2022/07/22 06:22:07;;;;;;;0.00;0.00;;;21.20;99.90;;;;;;5036103;28;20240;-72
2022/07/22 06:24:35;;;;;;;0.00;0.00;;;21.20;99.90;;;;;;5021451;28;20227;-73
2022/07/22 06:27:02;;;;;;;0.00;0.00;;;21.20;99.90;;;;;;5022149;28;20203;-72
2022/07/22 06:29:29;;;;;;;0.00;0.00;;;21.20;99.90;;;;;;5023094;28;20222;-72
2022/07/22 06:31:56;;;;;;;0.00;0.00;;;21.20;99.90;;;;;;5024268;28;20290;-71
2022/07/22 06:34:23;;;;;;;0.00;0.00;;;21.20;99.90;;;;;;5020672;28;20206;-71
2022/07/22 06:37:04;;;;;;;0.00;0.00;;;21.20;99.90;;;;;;5040081;28;20288;-72
2022/07/22 06:39:30;;;;;;;0.00;0.00;;;21.20;99.90;;;;;;5033520;28;20199;-71
2022/07/22 06:42:20;;;;;;;0.00;0.00;;;21.20;99.90;;;;;;5040027;28;20204;-73
2022/07/22 06:45:22;;;;;;;0.00;0.00;;;21.20;99.90;;;;;;5052458;28;20223;-73
2022/07/22 06:48:15;;;;;;;0.00;0.00;;;21.20;99.90;;;;;;5038979;28;20202;-71
2022/07/22 06:50:43;;;;;;;0.00;0.00;;;21.30;99.90;;;;;;5034355;28;20228;-74
2022/07/22 06:53:16;;;;;;;0.00;0.00;;;21.30;99.90;;;;;;5032804;28;20200;-73
2022/07/22 06:55:43;;;;;;;0.00;0.00;;;21.30;99.90;;;;;;5042412;28;20242;-73
2022/07/22 06:58:13;;;;;;;0.00;0.00;;;21.40;99.90;;;;;;5039709;28;20683;-72
2022/07/22 07:00:40;;;;;;;0.00;0.00;;;21.40;99.90;;;;;;5038505;28;20198;-72
2022/07/22 07:03:26;;;;;;;0.00;0.00;;;21.40;99.90;;;;;;5047875;28;20206;-71
2022/07/22 07:05:58;;;;;;;0.00;0.00;;;21.40;99.90;;;;;;5033434;28;20229;-72
2022/07/22 07:08:26;;;;;;;0.00;0.00;;;21.40;99.90;;;;;;5038125;28;20302;-73
2022/07/22 07:10:53;;;;;;;0.00;0.00;;;21.40;99.90;;;;;;5041967;28;20309;-72
2022/07/22 07:13:21;;;;;;;0.00;0.00;;;21.40;99.90;;;;;;5053638;28;20210;-72
2022/07/22 07:15:48;;;;;;;0.00;0.00;;;21.50;99.90;;;;;;5039389;28;20223;-73
2022/07/22 07:18:15;;;;;;;0.00;0.00;;;21.50;99.90;;;;;;5035691;28;20217;-74
2022/07/22 07:20:43;;;;;;;0.00;0.00;;;21.50;99.90;;;;;;5028417;28;20294;-73
2022/07/22 07:23:10;;;;;;;0.00;0.00;;;21.50;99.90;;;;;;5038063;28;20201;-75
2022/07/22 07:25:44;;;;;;;0.00;0.00;;;21.50;99.90;;;;;;5032001;28;20227;-73
2022/07/22 07:28:12;;;;;;;0.00;0.00;;;21.50;99.90;;;;;;5034201;28;20286;-73
2022/07/22 07:30:52;;;;;;;0.00;0.00;;;21.50;99.90;;;;;;5029014;28;20218;-73
2022/07/22 07:33:20;;;;;;;0.00;0.00;;;21.50;99.90;;;;;;5034339;28;20293;-74
2022/07/22 07:36:00;;;;;;;0.00;0.00;;;21.50;99.90;;;;;;5039566;28;20218;-72
2022/07/22 07:38:43;;;;;;;0.00;0.00;;;21.50;99.90;;;;;;5037865;28;20210;-72
2022/07/22 07:41:15;;;;;;;0.00;0.00;;;21.40;99.90;;;;;;5034768;28;20197;-73
2022/07/22 07:43:43;;;;;;;0.00;0.00;;;21.30;99.90;;;;;;5029373;28;20203;-72
2022/07/22 07:46:13;;;;;;;0.00;0.00;;;21.40;99.90;;;;;;5021735;28;20303;-73
2022/07/22 07:48:40;;;;;;;0.00;0.00;;;21.40;99.90;;;;;;5025108;28;20207;-72
2022/07/22 07:51:07;;;;;;;0.00;0.00;;;21.50;99.90;;;;;;5037295;28;20216;-71
2022/07/22 07:53:35;;;;;;;0.00;0.00;;;21.60;99.90;;;;;;5015115;28;20230;-73
2022/07/22 07:56:02;;;;;;;0.00;0.00;;;21.70;99.90;;;;;;5019289;28;20219;-73
2022/07/22 07:58:29;;;;;;;0.00;0.00;;;21.80;99.90;;;;;;5018313;28;20204;-73
2022/07/22 08:00:56;;;;;;;0.00;0.00;;;21.90;99.90;;;;;;5016650;28;20287;-71
2022/07/22 08:03:24;;;;;;;0.00;0.00;;;21.90;99.90;;;;;;5017001;28;20204;-74
2022/07/22 08:05:51;;;;;;;0.00;0.00;;;21.90;99.90;;;;;;5016338;28;20219;-73
2022/07/22 08:08:25;;;;;;;0.00;0.00;;;21.90;99.90;;;;;;5036798;28;20210;-73
2022/07/22 08:10:54;;;;;;;0.00;0.00;;;22.00;99.90;;;;;;5035500;28;20218;-73
2022/07/22 08:13:36;;;;;;;0.00;0.00;;;21.90;99.90;;;;;;5017187;28;20208;-73
2022/07/22 08:16:18;;;;;;;0.00;0.00;;;21.80;99.90;;;;;;5035902;28;20727;-74
2022/07/22 08:18:47;;;;;;;0.00;0.00;;;21.70;99.90;;;;;;5017569;28;20203;-72
2022/07/22 08:21:15;;;;;;;0.00;0.00;;;21.70;99.90;;;;;;5016498;28;20188;-73
2022/07/22 08:23:52;;;;;;;0.00;0.00;;;21.60;99.90;;;;;;5013944;28;20278;-72
2022/07/22 08:26:19;;;;;;;0.00;0.00;;;21.60;99.90;;;;;;5018437;28;20238;-72
2022/07/22 08:28:47;;;;;;;0.00;0.00;;;21.60;99.90;;;;;;5026500;28;20205;-73
2022/07/22 08:31:15;;;;;;;0.00;0.00;;;21.70;99.90;;;;;;5013256;28;20212;-74
2022/07/22 08:33:42;;;;;;;0.00;0.00;;;21.70;99.90;;;;;;5015007;28;20203;-74
2022/07/22 08:36:11;;;;;;;0.00;0.00;;;21.80;99.90;;;;;;5036187;28;20310;-72
2022/07/22 08:38:38;;;;;;;0.00;0.00;;;21.90;99.90;;;;;;5025261;28;20202;-74
2022/07/22 08:41:06;;;;;;;0.00;0.00;;;22.00;99.90;;;;;;5017687;28;20192;-74
2022/07/22 08:43:37;;;;;;;0.00;0.00;;;22.00;99.90;;;;;;5019984;28;20199;-73
2022/07/22 08:46:05;;;;;;;0.00;0.00;;;22.10;99.90;;;;;;5016496;28;20234;-73
2022/07/22 08:48:47;;;;;;;0.00;0.00;;;22.20;99.90;;;;;;5040645;28;20223;-73
2022/07/22 08:51:24;;;;;;;0.00;0.00;;;22.30;99.90;;;;;;5019358;28;20215;-73
2022/07/22 08:53:57;;;;;;;0.00;0.00;;;22.30;99.90;;;;;;5038859;28;20337;-73
2022/07/22 08:56:25;;;;;;;0.00;0.00;;;22.40;99.90;;;;;;5024325;28;20294;-75
2022/07/22 08:58:52;;;;;;;0.00;0.00;;;22.40;99.90;;;;;;5021047;28;20211;-73
2022/07/22 09:01:19;;;;;;;0.00;0.00;;;22.40;99.90;;;;;;5039043;28;20199;-74
2022/07/22 09:03:52;;;;;;;0.00;0.00;;;22.50;99.90;;;;;;5022848;28;20225;-73
2022/07/22 09:06:21;;;;;;;0.00;0.00;;;22.50;99.90;;;;;;5040682;28;20427;-73
2022/07/22 09:08:54;;;;;;;0.00;0.00;;;22.70;99.90;;;;;;5019647;28;20204;-73
2022/07/22 09:11:42;;;;;;;0.00;0.00;;;22.70;99.90;;;;;;5026316;28;20393;-74
2022/07/22 09:14:45;;;;;;;0.00;0.00;;;22.90;99.90;;;;;;5031281;28;20220;-74
2022/07/22 09:17:37;;;;;;;0.00;0.00;;;22.90;99.90;;;;;;5037709;28;20204;-72
2022/07/22 09:20:24;;;;;;;0.00;0.00;;;23.00;99.90;;;;;;5020781;28;20230;-72
2022/07/22 09:23:11;;;;;;;0.00;0.00;;;23.00;99.90;;;;;;5033887;28;20206;-72
2022/07/22 09:25:42;;;;;;;0.00;0.00;;;23.10;99.90;;;;;;5041101;28;20222;-72
2022/07/22 09:28:23;;;;;;;0.00;0.00;;;23.20;99.90;;;;;;5032547;28;20218;-74
2022/07/22 09:31:24;;;;;;;0.00;0.00;;;23.20;99.90;;;;;;5035963;28;20289;-74
2022/07/22 09:33:54;;;;;;;0.00;0.00;;;23.30;99.90;;;;;;5016667;28;20207;-74
2022/07/22 09:36:24;;;;;;;0.00;0.00;;;23.40;99.90;;;;;;5035607;28;20215;-73
2022/07/22 09:38:52;;;;;;;0.00;0.00;;;23.60;99.90;;;;;;5019157;28;20191;-73
2022/07/22 09:41:21;;;;;;;0.00;0.00;;;23.60;99.90;;;;;;5020061;28;20203;-74
2022/07/22 09:43:49;;;;;;;0.00;0.00;;;23.60;99.90;;;;;;5017431;28;20219;-73
2022/07/22 09:46:17;;;;;;;0.00;0.00;;;23.60;99.90;;;;;;5015540;28;20224;-74
2022/07/22 09:49:07;;;;;;;0.00;0.00;;;23.70;99.90;;;;;;5040074;28;20207;-70
2022/07/22 09:51:53;;;;;;;0.00;0.00;;;23.70;99.90;;;;;;5019177;28;20219;-73
2022/07/22 09:54:29;;;;;;;0.00;0.00;;;23.80;99.90;;;;;;5017597;28;20216;-71
2022/07/22 09:56:58;;;;;;;0.00;0.00;;;24.10;99.90;;;;;;5028101;28;20692;-73
2022/07/22 09:59:26;;;;;;;0.00;0.00;;;24.20;99.90;;;;;;5018993;28;20200;-72
2022/07/22 10:02:04;;;;;;;0.00;0.00;;;24.30;99.90;;;;;;5033300;28;20199;-72
2022/07/22 10:04:35;;;;;;;0.00;0.00;;;24.30;99.90;;;;;;5034315;28;20342;-73
2022/07/22 10:07:06;;;;;;;0.00;0.00;;;24.20;99.90;;;;;;5018582;28;20191;-73
2022/07/22 10:09:39;;;;;;;0.00;0.00;;;24.20;99.90;;;;;;5034249;28;20199;-73
2022/07/22 10:12:09;;;;;;;0.00;0.00;;;24.10;99.90;;;;;;5017328;28;20222;-73
2022/07/22 10:14:38;;;;;;;0.00;0.00;;;24.00;99.90;;;;;;5015844;28;20219;-73
2022/07/22 10:17:05;;;;;;;0.00;0.00;;;24.00;99.90;;;;;;5020557;28;20684;-72
2022/07/22 10:19:32;;;;;;;0.00;0.00;;;23.90;99.90;;;;;;5018045;28;20203;-72
2022/07/22 10:21:59;;;;;;;0.00;0.00;;;23.80;99.90;;;;;;5020617;28;20211;-71
2022/07/22 10:24:27;;;;;;;0.00;0.00;;;23.80;99.90;;;;;;5033668;28;20285;-73
2022/07/22 10:27:01;;;;;;;0.00;0.00;;;23.70;99.90;;;;;;5016045;28;20208;-72
2022/07/22 10:29:31;;;;;;;0.00;0.00;;;23.70;99.90;;;;;;5019918;28;20202;-73
2022/07/22 10:32:24;;;;;;;0.00;0.00;;;23.80;99.90;;;;;;5013698;28;20231;-72
2022/07/22 10:35:24;;;;;;;0.00;0.00;;;23.80;99.90;;;;;;5032540;28;20305;-75
2022/07/22 10:38:00;;;;;;;0.00;0.00;;;23.80;99.90;;;;;;5034913;28;20205;-71
2022/07/22 10:40:29;;;;;;;0.00;0.00;;;23.80;99.90;;;;;;5038150;28;20200;-73
2022/07/22 10:43:12;;;;;;;0.00;0.00;;;23.70;99.90;;;;;;5016912;28;20530;-73
2022/07/22 10:45:46;;;;;;;0.00;0.00;;;23.70;99.90;;;;;;5019500;28;20236;-73
2022/07/22 10:48:15;;;;;;;0.00;0.00;;;23.70;99.90;;;;;;5016888;28;20211;-73
2022/07/22 10:50:49;;;;;;;0.00;0.00;;;23.70;99.90;;;;;;5026756;28;20208;-74
2022/07/22 10:53:19;;;;;;;0.00;0.00;;;23.70;99.90;;;;;;5012958;28;20203;-74
2022/07/22 10:56:00;;;;;;;0.00;0.00;;;23.70;99.90;;;;;;5037019;28;20234;-73
2022/07/22 10:58:51;;;;;;;0.00;0.00;;;23.80;99.90;;;;;;5032499;28;20203;-75
2022/07/22 11:01:22;;;;;;;0.00;0.00;;;23.80;99.90;;;;;;5013554;28;20199;-74
2022/07/22 11:03:50;;;;;;;0.00;0.00;;;23.90;99.90;;;;;;5014071;28;20191;-75
2022/07/22 11:06:23;;;;;;;0.00;0.00;;;24.00;99.90;;;;;;5037373;28;20224;-74
2022/07/22 11:08:53;;;;;;;0.00;0.00;;;24.10;99.90;;;;;;5034765;28;20203;-75
2022/07/22 11:11:32;;;;;;;0.00;0.00;;;24.20;99.90;;;;;;5017341;28;20310;-73
2022/07/22 11:14:00;;;;;;;0.00;0.00;;;24.20;99.90;;;;;;5029038;28;20204;-73
2022/07/22 11:16:29;;;;;;;0.00;0.00;;;24.20;99.90;;;;;;5016867;28;20219;-72
2022/07/22 11:18:59;;;;;;;0.00;0.00;;;24.20;99.90;;;;;;5013628;28;20200;-73
2022/07/22 11:21:29;;;;;;;0.00;0.00;;;24.30;99.90;;;;;;5014414;28;20204;-73
2022/07/22 11:23:59;;;;;;;0.00;0.00;;;24.30;99.90;;;;;;5034265;28;20291;-74
2022/07/22 11:26:32;;;;;;;0.00;0.00;;;24.40;99.90;;;;;;5024215;28;20247;-76
2022/07/22 11:29:00;;;;;;;0.00;0.00;;;24.50;99.90;;;;;;5031632;28;20208;-73
2022/07/22 11:31:29;;;;;;;0.00;0.00;;;24.50;99.90;;;;;;5018234;28;20664;-76
2022/07/22 11:34:09;;;;;;;0.00;0.00;;;24.50;99.90;;;;;;5032075;28;20207;-76
2022/07/22 11:36:38;;;;;;;0.00;0.00;;;24.30;99.90;;;;;;5018496;28;20705;-72
2022/07/22 11:39:05;;;;;;;0.00;0.00;;;24.30;99.90;;;;;;5016583;28;20219;-73
2022/07/22 11:41:33;;;;;;;0.00;0.00;;;24.20;99.90;;;;;;5017438;28;20582;-72
2022/07/22 11:44:01;;;;;;;0.00;0.00;;;24.10;99.90;;;;;;5016536;28;20218;-73
2022/07/22 11:46:35;;;;;;;0.00;0.00;;;24.10;99.90;;;;;;5014771;28;20228;-72
2022/07/22 11:49:02;;;;;;;0.00;0.00;;;24.00;99.90;;;;;;5015948;28;20215;-73
2022/07/22 11:51:31;;;;;;;0.00;0.00;;;23.80;99.90;;;;;;5032087;28;20689;-73
2022/07/22 11:53:59;;;;;;;0.00;0.00;;;23.70;99.90;;;;;;5016121;28;20226;-72
2022/07/22 11:56:26;;;;;;;0.00;0.00;;;23.60;99.90;;;;;;5029312;28;20215;-72
2022/07/22 11:58:54;;;;;;;0.00;0.00;;;23.60;99.90;;;;;;5013656;28;20214;-72
2022/07/22 12:01:23;;;;;;;0.00;0.00;;;23.60;99.90;;;;;;5019496;28;20199;-72
2022/07/22 12:03:54;;;;;;;0.00;0.00;;;23.60;99.90;;;;;;5014754;28;20750;-69
2022/07/22 12:06:23;;;;;;;0.00;0.00;;;23.60;99.90;;;;;;5014622;28;20287;-72
2022/07/22 12:08:52;;;;;;;0.00;0.00;;;23.70;99.90;;;;;;5017420;28;20203;-72
2022/07/22 12:11:21;;;;;;;0.00;0.00;;;23.80;99.90;;;;;;5028932;28;20204;-72
2022/07/22 12:13:49;;;;;;;0.00;0.00;;;23.90;99.90;;;;;;5017348;28;20210;-71
2022/07/22 12:16:26;;;;;;;0.00;0.00;;;24.00;99.90;;;;;;5027672;28;20283;-72
2022/07/22 12:18:57;;;;;;;0.00;0.00;;;24.10;99.90;;;;;;5012240;28;20200;-72
2022/07/22 12:21:26;;;;;;;0.00;0.00;;;24.20;99.90;;;;;;5034326;28;20192;-73
2022/07/22 12:23:56;;;;;;;0.00;0.00;;;24.20;99.90;;;;;;5033709;28;20223;-72
2022/07/22 12:26:45;;;;;;;0.00;0.00;;;24.30;99.90;;;;;;5031106;28;20306;-70
2022/07/22 12:29:19;;;;;;;0.00;0.00;;;24.30;99.90;;;;;;5016719;28;20281;-70
2022/07/22 12:31:48;;;;;;;0.00;0.00;;;24.30;99.90;;;;;;5012594;28;20222;-72
2022/07/22 12:34:18;;;;;;;0.00;0.00;;;24.50;99.90;;;;;;5015977;28;20206;-72
2022/07/22 12:36:47;;;;;;;0.00;0.00;;;24.60;99.90;;;;;;5011727;28;20204;-71
2022/07/22 12:39:15;;;;;;;0.00;0.00;;;24.70;99.90;;;;;;5012653;28;20222;-72
2022/07/22 12:41:50;;;;;;;0.00;0.00;;;24.80;99.90;;;;;;5013958;28;20289;-69
2022/07/22 12:44:23;;;;;;;0.00;0.00;;;25.00;99.90;;;;;;5012344;28;20605;-71
2022/07/22 12:46:53;;;;;;;0.00;0.00;;;25.20;99.90;;;;;;5012066;28;20244;-71
2022/07/22 12:49:24;;;;;;;0.00;0.00;;;25.20;99.90;;;;;;5031165;28;20754;-72
2022/07/22 12:52:12;;;;;;;0.00;0.00;;;25.20;99.90;;;;;;5012736;28;20228;-72
2022/07/22 12:54:40;;;;;;;0.00;0.00;;;25.20;99.90;;;;;;5013525;28;20219;-73
2022/07/22 12:57:10;;;;;;;0.00;0.00;;;25.10;99.90;;;;;;5033117;28;20218;-73
2022/07/22 12:59:37;;;;;;;0.00;0.00;;;24.90;99.90;;;;;;5031471;28;20211;-74
2022/07/22 13:02:05;;;;;;;0.00;0.00;;;24.90;99.90;;;;;;5011916;28;20913;-74
2022/07/22 13:04:33;;;;;;;0.00;0.00;;;24.90;99.90;;;;;;5014906;28;20238;-74